West Shokan, New York
Current Conditions -  °F | °C
As of 8:53 AM on Thursday 27 Nov 2014 (Local Time) from KPOU Reporting Station
Overcast Overcast  
Wind Chill: 30°   Ceiling: 7500
Heat Index: 30°   Visibility: 9mi
Dew Point: 28°   Wind: 0mph
Humidity: 92%   Direction: NA
Pressure: 30"   Gusts: NA
Location:  41.97°N, 74.29°W
Report Text: KPOU 271353Z 00000KT 9SM OVC075 M01/M02 A3000 RMK AO2 SLP158 T10111022
Loading
Personal Weather Stations






























Interactive Weather Map New forecast layout! Learn more

10-Day Weather Forecast

Advertisements
Track Severe Weather on mobile